Aérodrome :
LOGIN :

S'inscrire | Disclaimer

   EN    FR    IT 

 










Légende :    VFR   VFR Marginal   IFR   IFR Intensif   IFR Très Intensif
Visi : 
Plafond : 
>= 8 km
>= 3000ft
5 à 8 km
1000 à 3000 ft
1500m à 5 km
500 à 1000 ft
800 à 1500m
200 à 500 ft
< 800m
< 200 ft
Symboles :   Orages  Brouillard  Fortes neiges  Fortes précipitations  Vent > 20 kt
SIGMETs :   Divers  Orages  Givrage  Turbulence  Onde Orograph.  Cendres Volcan.







- Altitude de l'aérodrome : 3 ft
- Code IATA : LWR


EHLW - Leuuwarden Air Base

DERNIER METAR :
  • 210835Z AUTO 33013KT 290V360 6000 BR OVC002 12/12 Q1012 AMB 33011KT 4500 BR BKN003 TEMPO BKN002

METARs EXPIRÉS :
  • 210825Z AUTO 33012KT 290V010 5000 BR BKN002 OVC003 12/12 Q1012 AMB 33011KT 4500 BR BKN003 TEMPO BKN002
  • 210807Z AUTO 34013KT 290V360 6000 BR OVC002 12/11 Q1012 AMB 33011KT 6000 BKN003 TEMPO BKN002
  • 210755Z AUTO 33012KT 300V010 7000 BR OVC002 12/12 Q1012 AMB 33011KT 4000 BR BKN003 TEMPO 2000 BR BKN002
  • 210746Z AUTO 33012KT 290V010 9000 BR BKN002 OVC003 12/12 Q1011 AMB 33011KT 4000 BR BKN003 TEMPO 2000 BR BKN002
  • 210725Z AUTO 33011KT 280V010 6000 BR BKN002 OVC003 12/12 Q1011 AMB 33011KT 4000 BR BKN003 TEMPO 2000 BR BKN002
  • 210655Z AUTO 33013KT 270V360 2400 R05/2400N BR OVC001 11/11 Q1011 RED 33011KT 2000 BR BKN002 TEMPO 0800 FG BKN001
  • 210635Z AUTO 33013KT 290V010 2000 R05/2000U BR OVC001 11/11 Q1011 RED 33011KT 2000 BR BKN002 TEMPO 0800 FG BKN001
  • 210625Z AUTO 33011KT 310V020 1200 R05/1200U BR OVC001 11/11 Q1011 RED 33014KT 0800 FG SCT001 BKN002
  • 210606Z AUTO 34012KT 290V010 0900 R05/0900N FG OVC001 11/11 Q1011 RED 33014KT 0800 FG BKN001

TAF TAF EHLW
Valide du 21 à 05h jusqu'au 21 à 17h UTC


210415Z 2105/2117 33012KT 1500 BR -DZ BKN001 OVC002
PROB40
TEMPO 2105/2107 0800 FG
BECMG 2107/2108 3000 BR BKN003 OVC005
BECMG 2108/2110 5000 NSW BKN005 OVC007
BECMG 2110/2113 BKN007 BKN010
Pas de NOTAMs connus pour ce terrain.



MET'MAP, la Météo Aéronautique d'un coup d'oeil ! - Copyright ORBIFLY Décembre 2007 - Disclaimer

ORBIFLY MET'MAP TEAM :

Programmation & Développement : Alexandra Zaïnal
Conception & Développement : Baudouin d'Aumeries
Co-Programmation & Développement : Marc-Olivier Méhu
Soutien technique & logistique : Manuel Goepfert

Contact : metmap@orbifly.com




SOURCES & CREDITS :

   NOAA